ADDS METAR Data INFO
IDs: Format: Raw Decoded Include TAF

Data at: 1454 UTC 11 Dec 2017

K1H2 111435Z AUTO 15007KT 10SM CLR 01/M02 A2999 RMK AO2 T00111023
K1H2 111415Z AUTO 15005KT 10SM CLR 01/M03 A3001 RMK AO2 T00051026
K1H2 111355Z AUTO 14004KT 10SM CLR 00/M03 A3003 RMK AO2 T10051027
K1H2 111335Z AUTO 13004KT 10SM CLR M02/M03 A3004 RMK AO2 T10161031
K1H2 111315Z AUTO 10003KT 10SM CLR M02/M04 A3004 RMK AO2 T10191038
K1H2 111255Z AUTO 13003KT 10SM CLR M01/M04 A3005 RMK AO2 T10121036
K1H2 111235Z AUTO 15003KT 10SM CLR M01/M03 A3006 RMK AO2 T10071035
K1H2 111215Z AUTO 17003KT 10SM CLR 00/M03 A3007 RMK AO2 T10051034
K1H2 111155Z AUTO 15003KT 10SM CLR 00/M03 A3007 RMK AO2 T10051032 11005 21048
K1H2 111135Z AUTO 15006KT 10SM CLR 00/M03 A3008 RMK AO2 T10051031
K1H2 111115Z AUTO 14004KT 10SM CLR M01/M03 A3008 RMK AO2 T10101031
K1H2 111055Z AUTO 14004KT 10SM CLR M02/M03 A3008 RMK AO2 T10231029
K1H2 111035Z AUTO 12003KT 10SM CLR M03/M04 A3010 RMK AO2 T10331037
K1H2 111015Z AUTO 00000KT 10SM CLR M04/M04 A3010 RMK AO2 T10381043
K1H2 110955Z AUTO 00000KT 10SM CLR M04/M05 A3010 RMK AO2 T10431046
K1H2 110935Z AUTO 09003KT 10SM CLR M05/M05 A3010 RMK AO2 T10481051
K1H2 110915Z AUTO 00000KT 10SM CLR M05/M05 A3011 RMK AO2 T10461050
K1H2 110855Z AUTO 00000KT 10SM CLR M05/M05 A3012 RMK AO2 T10461050
K1H2 110835Z AUTO 00000KT 10SM CLR M04/M05 A3011 RMK AO2 T10431047
K1H2 110815Z AUTO 00000KT 10SM CLR M04/M04 A3012 RMK AO2 T10401045
K1H2 110755Z AUTO 00000KT 10SM CLR M05/M05 A3013 RMK AO2 T10461052
K1H2 110735Z AUTO 00000KT 10SM CLR M04/M05 A3013 RMK AO2 T10431049
K1H2 110715Z AUTO 19003KT 10SM CLR M04/M05 A3014 RMK AO2 T10411049
K1H2 110655Z AUTO 00000KT 10SM CLR M04/M05 A3013 RMK AO2 T10401049
K1H2 110635Z AUTO 00000KT 10SM CLR M04/M05 A3014 RMK AO2 T10391049
K1H2 110615Z AUTO 00000KT 10SM CLR M03/M04 A3013 RMK AO2 T10311041
K1H2 110555Z AUTO 00000KT 10SM CLR M03/M04 A3014 RMK AO2 T10301042 10026 21030 400711070
K1H2 110535Z AUTO 00000KT 10SM CLR M02/M04 A3015 RMK AO2 T10251041
K1H2 110515Z AUTO 00000KT 10SM CLR M03/M05 A3015 RMK AO2 T10261046
K1H2 110455Z AUTO 00000KT 10SM CLR M02/M04 A3015 RMK AO2 T10161040
K1H2 110435Z AUTO 00000KT 10SM CLR M02/M04 A3016 RMK AO2 T10171043
K1H2 110415Z AUTO 00000KT 10SM CLR M02/M04 A3015 RMK AO2 T10161038
K1H2 110355Z AUTO 00000KT 10SM CLR 00/M04 A3015 RMK AO2 T10051036
K1H2 110335Z AUTO 00000KT 10SM CLR M01/M04 A3014 RMK AO2 T10151041
K1H2 110315Z AUTO 27003KT 10SM CLR M01/M04 A3014 RMK AO2 T10091041
K1H2 110255Z AUTO 27003KT 10SM CLR 00/M04 A3013 RMK AO2 T10041041
K1H2 110235Z AUTO 26003KT 10SM CLR M01/M04 A3013 RMK AO2 T10111042
K1H2 110210Z AUTO 25005KT 10SM CLR 00/M04 A3012 RMK AO2 T00031036
K1H2 110155Z AUTO 27004KT 10SM CLR 00/M04 A3012 RMK AO2 T10031036
K1H2 110135Z AUTO 25005KT 10SM CLR 00/M04 A3012 RMK AO2 T00011038
K1H2 110115Z AUTO 25004KT 10SM CLR 01/M03 A3011 RMK AO2 T00121035
K1H2 110055Z AUTO 27004KT 10SM CLR 02/M03 A3011 RMK AO2 T00161032
K1H2 110035Z AUTO 28004KT 10SM CLR 03/M03 A3010 RMK AO2 T00261028
K1H2 110015Z AUTO 28005KT 10SM CLR 02/M03 A3009 RMK AO2 T00171029
K1H2 102355Z AUTO 27006KT 10SM CLR 02/M03 A3009 RMK AO2 T00161030 10071 20012
K1H2 102335Z AUTO 26006KT 10SM CLR 02/M03 A3008 RMK AO2 T00201034
K1H2 102315Z AUTO 25004KT 10SM CLR 03/M03 A3006 RMK AO2 T00291035
K1H2 102255Z AUTO 25004KT 10SM CLR 04/M03 A3005 RMK AO2 T00401033
K1H2 102235Z AUTO 24005KT 10SM CLR 05/M03 A3005 RMK AO2 T00451035
K1H2 102215Z AUTO 25008KT 10SM CLR 05/M03 A3004 RMK AO2 T00531032
K1H2 102155Z AUTO 25008KT 10SM CLR 06/M03 A3003 RMK AO2 T00601034
K1H2 102135Z AUTO 24009G16KT 10SM CLR 07/M03 A3001 RMK AO2 T00651035
K1H2 102115Z AUTO 24011G16KT 10SM CLR 07/M04 A3001 RMK AO2 T00661037
K1H2 102055Z AUTO 24014G20KT 10SM CLR 07/M04 A3000 RMK AO2 T00681038
K1H2 102035Z AUTO 23012G17KT 10SM CLR 07/M04 A2999 RMK AO2 T00701036
K1H2 102015Z AUTO 22011KT 10SM CLR 07/M03 A2998 RMK AO2 T00701035
K1H2 101955Z AUTO 22010G20KT 10SM CLR 07/M04 A2998 RMK AO2 T00671036
K1H2 101935Z AUTO 22014G19KT 10SM CLR 07/M04 A2998 RMK AO2 T00651036
K1H2 101915Z AUTO 21014G23KT 10SM CLR 06/M04 A2999 RMK AO2 T00621038
K1H2 101855Z AUTO 22013G22KT 10SM CLR 05/M04 A2998 RMK AO2 T00521042
K1H2 101835Z AUTO 20017G22KT 10SM CLR 07/M04 A2997 RMK AO2 T00651037
K1H2 101815Z AUTO 21014G22KT 10SM CLR 05/M04 A2999 RMK AO2 T00451045
K1H2 101755Z AUTO 21013G19KT 10SM CLR 04/M05 A3001 RMK AO2 T00431049 10043 21047
K1H2 101735Z AUTO 19011G17KT 10SM CLR 04/M05 A3002 RMK AO2 T00361049
K1H2 101715Z AUTO 20013G19KT 10SM CLR 03/M05 A3003 RMK AO2 T00301053
K1H2 101655Z AUTO 19010G17KT 10SM CLR 03/M05 A3003 RMK AO2 T00321049
K1H2 101635Z AUTO 18014G19KT 10SM CLR 03/M05 A3004 RMK AO2 T00291051
K1H2 101615Z AUTO 17012G18KT 10SM CLR 02/M05 A3005 RMK AO2 T00221055
K1H2 101555Z AUTO 17010G17KT 10SM CLR 02/M06 A3006 RMK AO2 T00151057
K1H2 101535Z AUTO 18012G17KT 10SM CLR 01/M06 A3007 RMK AO2 T00071058
K1H2 101515Z AUTO 18011G16KT 10SM CLR 00/M06 A3009 RMK AO2 T10021062
K1H2 101455Z AUTO 17009G15KT 10SM CLR M01/M07 A3010 RMK AO2 T10131066
K1H2 101435Z AUTO 17009G14KT 10SM CLR M02/M07 A3011 RMK AO2 T10221067
K1H2 101415Z AUTO 18007KT 10SM SCT110 M03/M07 A3011 RMK AO2 T10301070
K1H2 101355Z AUTO 18007KT 10SM OVC110 M03/M07 A3012 RMK AO2 T10351070
K1H2 101335Z AUTO 19008KT 10SM OVC110 M03/M07 A3013 RMK AO2 T10351070
K1H2 101315Z AUTO 19007KT 10SM OVC120 M04/M07 A3013 RMK AO2 T10371071
K1H2 101255Z AUTO 18006KT 10SM OVC120 M04/M07 A3014 RMK AO2 T10371070
K1H2 101235Z AUTO 16005KT 10SM OVC110 M04/M07 A3013 RMK AO2 T10401072
K1H2 101215Z AUTO 20006KT 10SM OVC110 M04/M07 A3015 RMK AO2 T10411070
K1H2 101155Z AUTO 19007KT 10SM BKN120 M05/M07 A3014 RMK AO2 T10471073 11045 21070
K1H2 101135Z AUTO 17006KT 10SM OVC110 M04/M07 A3013 RMK AO2 T10451073
K1H2 101115Z AUTO 19006KT 10SM OVC110 M04/M07 A3014 RMK AO2 T10451071
K1H2 101055Z AUTO 20006KT 10SM BKN110 M05/M07 A3016 RMK AO2 T10511074
K1H2 101035Z AUTO 18005KT 10SM SCT120 M06/M08 A3016 RMK AO2 T10581080
K1H2 101015Z AUTO 19004KT 10SM SCT120 M06/M08 A3016 RMK AO2 T10591080
K1H2 100955Z AUTO 18005KT 10SM CLR M06/M08 A3016 RMK AO2 T10611083
K1H2 100935Z AUTO 19005KT 10SM CLR M06/M08 A3016 RMK AO2 T10611083
K1H2 100915Z AUTO 19005KT 10SM CLR M06/M08 A3018 RMK AO2 T10621083
K1H2 100855Z AUTO 20005KT 10SM CLR M06/M08 A3018 RMK AO2 T10631082
K1H2 100835Z AUTO 19003KT 10SM CLR M06/M08 A3018 RMK AO2 T10651084
K1H2 100815Z AUTO 19004KT 10SM CLR M07/M08 A3018 RMK AO2 T10661084
K1H2 100755Z AUTO 20003KT 10SM CLR M06/M08 A3018 RMK AO2 T10591085
K1H2 100735Z AUTO 23003KT 10SM CLR M06/M08 A3019 RMK AO2 T10571084
K1H2 100715Z AUTO 25004KT 10SM CLR M05/M08 A3018 RMK AO2 T10551085
K1H2 100655Z AUTO 24004KT 10SM CLR M05/M08 A3019 RMK AO2 T10541085
K1H2 100635Z AUTO 22004KT 10SM CLR M05/M08 A3019 RMK AO2 T10461082
K1H2 100615Z AUTO 25005KT 10SM CLR M05/M08 A3019 RMK AO2 T10481080
K1H2 100555Z AUTO 26007KT 10SM CLR M05/M08 A3019 RMK AO2 T10461080 11009 21051 400281051
K1H2 100535Z AUTO 25007KT 10SM CLR M04/M08 A3020 RMK AO2 T10391080
K1H2 100515Z AUTO 25006KT 10SM CLR M05/M08 A3019 RMK AO2 T10461079
K1H2 100455Z AUTO 27005KT 10SM CLR M05/M08 A3019 RMK AO2 T10471080
K1H2 100435Z AUTO 26005KT 10SM CLR M05/M08 A3019 RMK AO2 T10481081
K1H2 100415Z AUTO 26006KT 10SM CLR M04/M08 A3019 RMK AO2 T10451080
K1H2 100355Z AUTO 25007KT 10SM CLR M04/M08 A3019 RMK AO2 T10441080
K1H2 100335Z AUTO 25006KT 10SM CLR M05/M08 A3019 RMK AO2 T10511083
K1H2 100315Z AUTO 25005KT 10SM CLR M04/M08 A3018 RMK AO2 T10421084
K1H2 100255Z AUTO 25005KT 10SM CLR M04/M08 A3019 RMK AO2 T10411084